Time;durP1;ratioP1;P1;durP2;ratioP2;P2;SDS_P1;SDS_P2;PMS_P1;PMS_P2;Temp;Humidity;BMP_temperature;BMP_pressure;BME280_temperature;BME280_humidity;BME280_pressure;Samples;Min_cycle;Max_cycle;Signal;HPM_P1;HPM_P2
2023/03/31 00:01:03;;;;;;;0.90;0.90;;;12.50;99.90;;;;;;4991975;28;20206;-65
2023/03/31 00:03:32;;;;;;;1.40;1.20;;;12.40;99.90;;;;;;4993096;28;20206;-65
2023/03/31 00:06:00;;;;;;;1.40;1.30;;;12.40;99.90;;;;;;4993691;28;20272;-64
2023/03/31 00:08:34;;;;;;;1.10;1.00;;;12.30;99.90;;;;;;4993423;28;20236;-65
2023/03/31 00:11:01;;;;;;;1.27;1.17;;;12.30;99.90;;;;;;4991825;28;20209;-64
2023/03/31 00:13:29;;;;;;;1.00;1.00;;;12.30;99.90;;;;;;4992968;28;20216;-64
2023/03/31 00:16:00;;;;;;;0.90;0.90;;;12.30;99.90;;;;;;4992543;28;20234;-64
2023/03/31 00:18:28;;;;;;;1.13;1.13;;;12.40;99.90;;;;;;4992686;28;20237;-66
2023/03/31 00:21:01;;;;;;;1.20;1.10;;;12.40;99.90;;;;;;4992020;28;20299;-64
2023/03/31 00:23:28;;;;;;;1.17;1.07;;;12.40;99.90;;;;;;4992151;28;20749;-65
2023/03/31 00:25:55;;;;;;;1.57;1.47;;;12.40;99.90;;;;;;4992253;28;20234;-65
2023/03/31 00:28:22;;;;;;;1.10;1.10;;;12.40;99.90;;;;;;4992407;28;20232;-64
2023/03/31 00:30:49;;;;;;;1.27;1.03;;;12.40;99.90;;;;;;4990948;28;20213;-65
2023/03/31 00:33:17;;;;;;;1.27;1.17;;;12.50;99.90;;;;;;4993814;28;20216;-65
2023/03/31 00:35:44;;;;;;;1.23;1.13;;;12.50;99.90;;;;;;4992547;28;20601;-65
2023/03/31 00:38:12;;;;;;;1.10;1.10;;;12.50;99.90;;;;;;4987129;28;20209;-65
2023/03/31 00:40:45;;;;;;;1.00;1.00;;;12.50;99.90;;;;;;4984381;28;20209;-65
2023/03/31 00:43:27;;;;;;;1.00;1.00;;;12.40;99.90;;;;;;4992282;28;20202;-65
2023/03/31 00:45:55;;;;;;;1.53;1.43;;;12.30;99.90;;;;;;4992205;28;20226;-65
2023/03/31 00:48:24;;;;;;;1.33;1.23;;;12.30;99.90;;;;;;4991909;28;20228;-66
2023/03/31 00:50:54;;;;;;;1.30;1.20;;;12.40;99.90;;;;;;4991365;28;20583;-65
2023/03/31 00:53:25;;;;;;;1.70;1.40;;;12.50;99.90;;;;;;4992577;28;20237;-65
2023/03/31 00:55:55;;;;;;;1.33;1.27;;;12.70;99.90;;;;;;4992148;28;20575;-65
2023/03/31 00:58:27;;;;;;;1.67;1.37;;;13.00;99.90;;;;;;4991761;28;20205;-65
2023/03/31 01:00:56;;;;;;;1.73;1.30;;;13.20;99.90;;;;;;4992005;28;20240;-65
2023/03/31 01:03:25;;;;;;;2.43;1.50;;;13.40;99.90;;;;;;4992437;28;20216;-65
2023/03/31 01:05:55;;;;;;;1.50;1.40;;;13.50;99.90;;;;;;4992310;28;20641;-64
2023/03/31 01:08:25;;;;;;;1.43;1.33;;;13.40;99.90;;;;;;4992271;28;20720;-65
2023/03/31 01:10:54;;;;;;;1.57;1.47;;;13.30;99.90;;;;;;4991290;28;20206;-64
2023/03/31 01:13:22;;;;;;;1.40;1.30;;;13.30;99.90;;;;;;4992344;28;20593;-65
2023/03/31 01:15:50;;;;;;;1.60;1.50;;;13.20;99.90;;;;;;4992329;28;20240;-64
2023/03/31 01:18:19;;;;;;;1.42;1.33;;;13.20;99.90;;;;;;4987129;28;20273;-64
2023/03/31 01:21:05;;;;;;;1.40;1.30;;;13.20;99.90;;;;;;4991473;28;20250;-65
2023/03/31 01:23:59;;;;;;;1.40;1.30;;;13.10;99.90;;;;;;4992348;28;20210;-64
2023/03/31 01:26:56;;;;;;;1.43;1.33;;;13.00;99.90;;;;;;4992519;28;20256;-65
2023/03/31 01:30:07;;;;;;;1.70;1.60;;;13.00;99.90;;;;;;4991112;28;20233;-65
2023/03/31 01:33:09;;;;;;;1.50;1.40;;;13.00;99.90;;;;;;4985611;28;20792;-66
2023/03/31 01:36:17;;;;;;;1.87;1.50;;;12.80;99.90;;;;;;4992179;28;20233;-65
2023/03/31 01:39:16;;;;;;;1.47;1.37;;;12.70;99.90;;;;;;4990890;28;20194;-64
2023/03/31 01:41:55;;;;;;;1.37;1.27;;;12.60;99.90;;;;;;4995737;28;20220;-65
2023/03/31 01:44:28;;;;;;;1.40;1.13;;;12.60;99.90;;;;;;4995817;28;20221;-66
2023/03/31 01:46:58;;;;;;;1.42;1.33;;;12.60;99.90;;;;;;4995683;28;20735;-66
2023/03/31 01:49:30;;;;;;;1.27;1.17;;;12.50;99.90;;;;;;4995744;28;20236;-65
2023/03/31 01:52:04;;;;;;;1.53;1.33;;;12.40;99.90;;;;;;4995873;28;20210;-65
2023/03/31 01:54:38;;;;;;;1.80;1.57;;;12.30;99.90;;;;;;4995889;28;20210;-65
2023/03/31 01:57:13;;;;;;;1.40;1.30;;;12.30;99.90;;;;;;4995813;28;20221;-65
2023/03/31 01:59:47;;;;;;;1.20;1.10;;;12.30;99.90;;;;;;4995189;28;20220;-65
2023/03/31 02:02:19;;;;;;;1.60;1.50;;;12.30;99.90;;;;;;4995263;28;20220;-65
2023/03/31 02:04:50;;;;;;;1.63;1.30;;;12.20;99.90;;;;;;4995398;28;20206;-65
2023/03/31 02:07:20;;;;;;;1.47;1.37;;;12.10;99.90;;;;;;4995079;28;20218;-65
2023/03/31 02:09:50;;;;;;;1.53;1.43;;;12.20;99.90;;;;;;4994496;28;20661;-65
2023/03/31 02:12:21;;;;;;;1.33;1.23;;;12.10;99.90;;;;;;5007573;28;20210;-66
2023/03/31 02:14:52;;;;;;;1.83;1.47;;;12.10;99.90;;;;;;5001449;28;20208;-65
2023/03/31 02:17:29;;;;;;;1.40;1.30;;;12.10;99.90;;;;;;4996469;28;20234;-65
2023/03/31 02:19:58;;;;;;;1.50;1.40;;;12.00;99.90;;;;;;4996002;28;20209;-65
2023/03/31 02:22:31;;;;;;;1.50;1.40;;;12.00;99.90;;;;;;4997100;28;20224;-65
2023/03/31 02:25:01;;;;;;;1.97;1.60;;;12.00;99.90;;;;;;4997676;28;20847;-65
2023/03/31 02:27:33;;;;;;;1.40;1.30;;;11.90;99.90;;;;;;4997813;28;20213;-65
2023/03/31 02:30:00;;;;;;;1.80;1.33;;;11.90;99.90;;;;;;5004515;28;20241;-66
2023/03/31 02:32:32;;;;;;;1.27;1.17;;;11.90;99.90;;;;;;4999162;28;20214;-65
2023/03/31 02:35:00;;;;;;;1.40;1.20;;;11.80;99.90;;;;;;4994615;28;20229;-65
2023/03/31 02:37:28;;;;;;;1.30;1.20;;;11.80;99.90;;;;;;4994675;28;20213;-65
2023/03/31 02:39:57;;;;;;;1.83;1.70;;;11.80;99.90;;;;;;4994182;28;20202;-65
2023/03/31 02:42:25;;;;;;;1.47;1.37;;;11.80;99.90;;;;;;4993965;28;20212;-65
2023/03/31 02:44:53;;;;;;;1.47;1.37;;;11.80;99.90;;;;;;4994204;28;20739;-64
2023/03/31 02:47:21;;;;;;;1.57;1.47;;;11.80;99.90;;;;;;4993951;28;20206;-65
2023/03/31 02:49:52;;;;;;;1.43;1.33;;;11.80;99.90;;;;;;4993136;28;20240;-66
2023/03/31 02:52:38;;;;;;;1.50;1.40;;;11.80;99.90;;;;;;4994018;28;20594;-64
2023/03/31 02:55:36;;;;;;;1.30;1.30;;;11.80;99.90;;;;;;4994016;28;20230;-64
2023/03/31 02:58:27;;;;;;;1.87;1.60;;;11.80;99.90;;;;;;4992816;28;20206;-64
2023/03/31 03:01:18;;;;;;;1.10;1.10;;;11.70;99.90;;;;;;4993078;28;20210;-64
2023/03/31 03:03:56;;;;;;;1.23;1.20;;;11.70;99.90;;;;;;4993740;28;20221;-64
2023/03/31 03:06:37;;;;;;;1.60;1.50;;;11.80;99.90;;;;;;4993882;28;20333;-65
2023/03/31 03:09:21;;;;;;;1.30;1.20;;;11.70;99.90;;;;;;4993146;28;20225;-65
2023/03/31 03:11:56;;;;;;;1.43;1.33;;;11.70;99.90;;;;;;4993186;28;20210;-65
2023/03/31 03:14:31;;;;;;;1.33;1.23;;;11.60;99.90;;;;;;4993608;28;20208;-65
2023/03/31 03:17:05;;;;;;;1.37;1.20;;;11.60;99.90;;;;;;4994095;28;20209;-65
2023/03/31 03:19:32;;;;;;;1.50;1.40;;;11.70;99.90;;;;;;4992881;28;20201;-64
2023/03/31 03:21:59;;;;;;;1.50;1.40;;;11.70;99.90;;;;;;4993505;28;20216;-66
2023/03/31 03:24:28;;;;;;;1.30;1.30;;;11.70;99.90;;;;;;4993697;28;20212;-64
2023/03/31 03:26:55;;;;;;;1.30;1.30;;;11.70;99.90;;;;;;4993524;28;20352;-64
2023/03/31 03:29:22;;;;;;;1.17;1.17;;;11.70;99.90;;;;;;4992975;28;20229;-65
2023/03/31 03:31:49;;;;;;;1.60;1.50;;;11.80;99.90;;;;;;4993507;28;20950;-64
2023/03/31 03:34:18;;;;;;;1.70;1.60;;;11.80;99.90;;;;;;4993513;28;20305;-65
2023/03/31 03:36:46;;;;;;;1.63;1.53;;;11.90;99.90;;;;;;4993360;28;20230;-65
2023/03/31 03:39:13;;;;;;;1.20;1.20;;;11.90;99.90;;;;;;4992337;28;20202;-65
2023/03/31 03:41:40;;;;;;;1.50;1.40;;;12.00;99.90;;;;;;4992697;28;20220;-66
2023/03/31 03:44:06;;;;;;;1.60;1.50;;;12.00;99.90;;;;;;4993025;28;20210;-65
2023/03/31 03:46:33;;;;;;;1.63;1.53;;;12.00;99.90;;;;;;4993157;28;20230;-64
2023/03/31 03:49:00;;;;;;;1.30;1.30;;;12.10;99.90;;;;;;4992891;28;20225;-66
2023/03/31 03:51:28;;;;;;;1.53;1.43;;;12.10;99.90;;;;;;4998977;28;20210;-65
2023/03/31 03:53:55;;;;;;;1.33;1.33;;;12.20;99.90;;;;;;4992941;28;20213;-64
2023/03/31 03:56:22;;;;;;;1.20;1.20;;;12.20;99.90;;;;;;4993061;28;20647;-64
2023/03/31 03:58:49;;;;;;;1.45;1.35;;;12.20;99.90;;;;;;4992253;28;20696;-64
2023/03/31 04:01:16;;;;;;;1.00;1.00;;;12.20;99.90;;;;;;4992281;28;20293;-65
2023/03/31 04:03:43;;;;;;;1.53;1.40;;;12.20;99.90;;;;;;4992918;28;20209;-65
2023/03/31 04:06:11;;;;;;;1.37;1.30;;;12.20;99.90;;;;;;4993164;28;20233;-64
2023/03/31 04:08:39;;;;;;;1.47;1.37;;;12.20;99.90;;;;;;4992705;28;20216;-65
2023/03/31 04:11:12;;;;;;;1.40;1.30;;;12.20;99.90;;;;;;4992137;28;20234;-65
2023/03/31 04:13:39;;;;;;;1.30;1.30;;;12.20;99.90;;;;;;4992338;28;20297;-65
2023/03/31 04:16:07;;;;;;;1.37;1.30;;;12.30;99.90;;;;;;4992758;28;20230;-65
2023/03/31 04:18:36;;;;;;;1.17;1.17;;;12.30;99.90;;;;;;4992310;28;20561;-65
2023/03/31 04:21:06;;;;;;;1.47;1.37;;;12.30;99.90;;;;;;4991596;28;20216;-65
2023/03/31 04:23:33;;;;;;;1.60;1.50;;;12.20;99.90;;;;;;4992654;28;20216;-64
2023/03/31 04:26:02;;;;;;;1.50;1.40;;;12.20;99.90;;;;;;4992453;28;20720;-64
2023/03/31 04:28:33;;;;;;;1.40;1.30;;;12.10;99.90;;;;;;4992535;28;20264;-65
2023/03/31 04:31:01;;;;;;;1.60;1.50;;;12.10;99.90;;;;;;4988602;28;20261;-66
2023/03/31 04:33:28;;;;;;;1.47;1.37;;;12.10;99.90;;;;;;4990923;28;20206;-66
2023/03/31 04:35:55;;;;;;;1.43;1.33;;;12.00;99.90;;;;;;4999783;28;20234;-65
2023/03/31 04:38:25;;;;;;;1.30;1.30;;;12.00;99.90;;;;;;5004323;28;20209;-65
2023/03/31 04:40:53;;;;;;;1.50;1.40;;;12.00;99.90;;;;;;4984707;28;20581;-65
2023/03/31 04:43:21;;;;;;;1.57;1.47;;;11.90;99.90;;;;;;4989892;28;20676;-65
2023/03/31 04:45:48;;;;;;;1.50;1.40;;;11.90;99.90;;;;;;4987249;28;20226;-65
2023/03/31 04:48:15;;;;;;;1.50;1.40;;;12.00;99.90;;;;;;4988644;28;20208;-65
2023/03/31 04:50:42;;;;;;;1.47;1.37;;;11.90;99.90;;;;;;4990548;28;20248;-64
2023/03/31 04:53:09;;;;;;;1.67;1.57;;;11.90;99.90;;;;;;4991434;28;20218;-64
2023/03/31 04:55:36;;;;;;;1.70;1.60;;;11.90;99.90;;;;;;4990818;28;20256;-64
2023/03/31 04:58:03;;;;;;;1.50;1.40;;;11.90;99.90;;;;;;4990647;28;20585;-64
2023/03/31 05:00:31;;;;;;;1.63;1.53;;;11.90;99.90;;;;;;4991429;28;20199;-65
2023/03/31 05:03:00;;;;;;;1.60;1.50;;;11.80;99.90;;;;;;4992971;28;20208;-65
2023/03/31 05:05:27;;;;;;;1.60;1.50;;;11.80;99.90;;;;;;4994019;28;20280;-64
2023/03/31 05:07:55;;;;;;;1.63;1.53;;;11.80;99.90;;;;;;5002497;28;20216;-66
2023/03/31 05:10:22;;;;;;;1.63;1.53;;;11.90;99.90;;;;;;5014264;28;20232;-65
2023/03/31 05:12:49;;;;;;;1.60;1.50;;;11.80;99.90;;;;;;5016494;28;20702;-65
2023/03/31 05:15:16;;;;;;;1.77;1.67;;;11.80;99.90;;;;;;5010076;28;20265;-65
2023/03/31 05:17:44;;;;;;;1.60;1.50;;;11.70;99.90;;;;;;5015384;28;20202;-66
2023/03/31 05:20:13;;;;;;;1.70;1.57;;;11.70;99.90;;;;;;5014605;28;20190;-65
2023/03/31 05:22:41;;;;;;;1.40;1.30;;;11.70;99.90;;;;;;5011320;28;20206;-67
2023/03/31 05:25:13;;;;;;;1.70;1.60;;;11.70;99.90;;;;;;5000530;28;20294;-65
2023/03/31 05:27:40;;;;;;;1.57;1.47;;;11.70;99.90;;;;;;5003302;28;20229;-66
2023/03/31 05:30:08;;;;;;;1.60;1.50;;;11.60;99.90;;;;;;4989974;28;20249;-66
2023/03/31 05:32:35;;;;;;;1.67;1.58;;;11.60;99.90;;;;;;4994577;28;20202;-66
2023/03/31 05:35:03;;;;;;;1.70;1.60;;;11.60;99.90;;;;;;4980869;28;20597;-65
2023/03/31 05:37:30;;;;;;;1.53;1.43;;;11.60;99.90;;;;;;4976856;28;20206;-68
2023/03/31 05:39:57;;;;;;;1.67;1.57;;;11.60;99.90;;;;;;4995700;28;20297;-65
2023/03/31 05:42:24;;;;;;;1.50;1.40;;;11.60;99.90;;;;;;4994683;28;20292;-65
2023/03/31 05:44:51;;;;;;;1.70;1.60;;;11.60;99.90;;;;;;4990294;28;20213;-66
2023/03/31 05:47:18;;;;;;;1.60;1.50;;;11.60;99.90;;;;;;4993393;28;20210;-65
2023/03/31 05:49:45;;;;;;;1.60;1.50;;;11.70;99.90;;;;;;4993460;28;20218;-66
2023/03/31 05:52:13;;;;;;;1.63;1.53;;;11.80;99.90;;;;;;4995402;28;20201;-65
2023/03/31 05:54:41;;;;;;;1.60;1.50;;;11.80;99.90;;;;;;4996014;28;20208;-66
2023/03/31 05:57:08;;;;;;;1.63;1.53;;;11.90;99.90;;;;;;4996105;28;20296;-64
2023/03/31 05:59:35;;;;;;;1.70;1.60;;;12.00;99.90;;;;;;4994878;28;20206;-64
2023/03/31 06:02:02;;;;;;;1.60;1.50;;;12.00;99.90;;;;;;4993574;28;20210;-66
2023/03/31 06:04:30;;;;;;;1.70;1.60;;;12.00;99.90;;;;;;4986712;28;20279;-64
2023/03/31 06:06:57;;;;;;;1.60;1.50;;;12.00;99.90;;;;;;4994391;28;20261;-67
2023/03/31 06:09:27;;;;;;;1.87;1.60;;;12.20;99.90;;;;;;4994701;28;20760;-65
2023/03/31 06:11:54;;;;;;;1.63;1.33;;;12.20;99.90;;;;;;4994799;28;20250;-64
2023/03/31 06:14:20;;;;;;;1.50;1.40;;;12.20;99.90;;;;;;4995093;28;20244;-66
2023/03/31 06:16:48;;;;;;;1.37;1.27;;;12.30;99.90;;;;;;4994307;28;20222;-65
2023/03/31 06:19:15;;;;;;;1.50;1.40;;;12.40;99.90;;;;;;4994468;28;20206;-64
2023/03/31 06:21:41;;;;;;;1.23;1.13;;;12.40;99.90;;;;;;4998468;28;20297;-65
2023/03/31 06:24:09;;;;;;;1.50;1.40;;;12.50;99.90;;;;;;4995291;28;20210;-64
2023/03/31 06:26:37;;;;;;;1.57;1.47;;;12.50;99.90;;;;;;4995057;28;20229;-64
2023/03/31 06:29:04;;;;;;;1.10;1.10;;;12.50;99.90;;;;;;4994808;28;20209;-65
2023/03/31 06:31:31;;;;;;;1.33;1.23;;;12.40;99.90;;;;;;4994736;28;20229;-64
2023/03/31 06:33:58;;;;;;;1.10;1.10;;;12.40;99.90;;;;;;4995293;28;20208;-64
2023/03/31 06:36:24;;;;;;;0.93;0.93;;;12.40;99.90;;;;;;4993993;28;20240;-65
2023/03/31 06:38:51;;;;;;;0.90;0.90;;;12.40;99.90;;;;;;4994711;28;20216;-66
2023/03/31 06:41:21;;;;;;;1.40;1.07;;;12.30;99.90;;;;;;4994385;28;20577;-65
2023/03/31 06:43:49;;;;;;;0.70;0.70;;;12.30;99.90;;;;;;4994688;28;20692;-64
2023/03/31 06:46:16;;;;;;;0.90;0.90;;;12.30;99.90;;;;;;4994689;28;20230;-66
2023/03/31 06:48:43;;;;;;;0.90;0.90;;;12.40;99.90;;;;;;4994577;28;20284;-65
2023/03/31 06:51:10;;;;;;;1.07;1.00;;;12.30;99.90;;;;;;4994230;28;20234;-66
2023/03/31 06:53:37;;;;;;;0.97;0.90;;;12.40;99.90;;;;;;4994297;28;20217;-67
2023/03/31 06:56:06;;;;;;;1.10;1.00;;;12.30;99.90;;;;;;4998314;28;20226;-66
2023/03/31 06:58:33;;;;;;;0.90;0.90;;;12.30;99.90;;;;;;5002476;28;20665;-66
2023/03/31 07:01:02;;;;;;;1.10;1.00;;;12.30;99.90;;;;;;5001359;28;20213;-66
2023/03/31 07:03:29;;;;;;;0.93;0.93;;;12.40;99.90;;;;;;4993557;28;20212;-66
2023/03/31 07:05:56;;;;;;;0.90;0.90;;;12.50;99.90;;;;;;4993221;28;20225;-65
2023/03/31 07:08:23;;;;;;;0.90;0.90;;;12.50;99.90;;;;;;4992935;28;20240;-66
2023/03/31 07:10:56;;;;;;;0.87;0.87;;;12.60;99.90;;;;;;4992462;28;20226;-66
2023/03/31 07:13:23;;;;;;;0.83;0.80;;;12.50;99.90;;;;;;4992743;28;20209;-64
2023/03/31 07:15:50;;;;;;;0.77;0.77;;;12.50;99.90;;;;;;4993025;28;20608;-64
2023/03/31 07:18:19;;;;;;;0.77;0.77;;;12.50;99.90;;;;;;4993218;28;20695;-65
2023/03/31 07:20:48;;;;;;;0.97;0.97;;;12.50;99.90;;;;;;4992889;28;20210;-65
2023/03/31 07:23:15;;;;;;;0.80;0.80;;;12.50;99.90;;;;;;4992773;28;20590;-65
2023/03/31 07:25:42;;;;;;;0.80;0.80;;;12.60;99.90;;;;;;4980118;28;20238;-66
2023/03/31 07:28:09;;;;;;;1.20;0.90;;;12.50;99.90;;;;;;4972255;28;20221;-66
2023/03/31 07:30:35;;;;;;;0.90;0.90;;;12.60;99.90;;;;;;4973603;28;20254;-64
2023/03/31 07:33:02;;;;;;;1.13;1.03;;;12.60;99.90;;;;;;4973297;28;20207;-64
2023/03/31 07:35:30;;;;;;;0.67;0.67;;;12.60;99.90;;;;;;4977942;28;20227;-65
2023/03/31 07:37:57;;;;;;;0.67;0.67;;;12.70;99.90;;;;;;4974394;28;20210;-64
2023/03/31 07:40:26;;;;;;;0.70;0.70;;;12.70;99.90;;;;;;4992536;28;20206;-67
2023/03/31 07:42:53;;;;;;;0.67;0.67;;;12.80;99.90;;;;;;4992637;28;20202;-64
2023/03/31 07:45:20;;;;;;;0.60;0.60;;;12.80;99.90;;;;;;4999032;28;20246;-63
2023/03/31 07:47:48;;;;;;;0.80;0.80;;;12.90;99.90;;;;;;4991681;28;20212;-64
2023/03/31 07:50:15;;;;;;;1.20;0.87;;;13.00;99.90;;;;;;4990565;28;20233;-63
2023/03/31 07:52:44;;;;;;;1.10;0.80;;;13.00;99.90;;;;;;4990910;28;20216;-67
2023/03/31 07:55:12;;;;;;;0.87;0.87;;;13.10;99.90;;;;;;4992035;28;20225;-64
2023/03/31 07:57:40;;;;;;;0.80;0.80;;;13.10;99.90;;;;;;4991519;28;20312;-65
2023/03/31 08:00:11;;;;;;;0.70;0.70;;;13.20;99.90;;;;;;4989082;28;20214;-63
2023/03/31 08:02:38;;;;;;;0.80;0.80;;;13.30;99.90;;;;;;4992586;28;20214;-63
2023/03/31 08:05:06;;;;;;;0.77;0.77;;;13.30;99.90;;;;;;4993056;28;20726;-64
2023/03/31 08:07:34;;;;;;;0.47;0.47;;;13.50;99.90;;;;;;4998348;28;20242;-65
2023/03/31 08:10:03;;;;;;;0.70;0.70;;;13.50;99.90;;;;;;4990490;28;20269;-65
2023/03/31 08:12:30;;;;;;;0.60;0.60;;;13.60;99.90;;;;;;4991041;28;20210;-65
2023/03/31 08:14:57;;;;;;;0.53;0.53;;;13.80;99.90;;;;;;4992957;28;20228;-64
2023/03/31 08:17:24;;;;;;;1.03;0.80;;;13.70;99.90;;;;;;4993177;28;20668;-65
2023/03/31 08:19:51;;;;;;;0.77;0.77;;;13.70;99.90;;;;;;4990607;28;20677;-65
2023/03/31 08:22:18;;;;;;;0.70;0.70;;;13.70;99.90;;;;;;4992602;28;20292;-65
2023/03/31 08:24:45;;;;;;;0.80;0.80;;;13.70;99.90;;;;;;4994367;28;20320;-63
2023/03/31 08:27:13;;;;;;;0.70;0.70;;;13.80;99.90;;;;;;4997619;28;20288;-64
2023/03/31 08:29:40;;;;;;;0.83;0.83;;;13.80;99.90;;;;;;4991955;28;20703;-64
2023/03/31 08:32:07;;;;;;;0.70;0.70;;;13.90;99.90;;;;;;4991764;28;20226;-65
2023/03/31 08:34:35;;;;;;;0.70;0.70;;;14.00;99.90;;;;;;4992871;28;20206;-65
2023/03/31 08:37:02;;;;;;;0.60;0.60;;;14.00;99.90;;;;;;4991495;28;20260;-65
2023/03/31 08:39:29;;;;;;;0.77;0.77;;;14.10;99.90;;;;;;4991003;28;20214;-65
2023/03/31 08:42:00;;;;;;;0.70;0.70;;;14.10;99.90;;;;;;4976227;28;20206;-63
2023/03/31 08:44:32;;;;;;;0.80;0.80;;;14.20;99.90;;;;;;4971854;28;20224;-65
2023/03/31 08:47:00;;;;;;;0.50;0.50;;;14.10;99.90;;;;;;4988784;28;20229;-64
2023/03/31 08:49:31;;;;;;;0.67;0.67;;;14.30;99.90;;;;;;4990804;28;20677;-64
2023/03/31 08:52:02;;;;;;;0.70;0.70;;;14.60;99.90;;;;;;4990796;28;20296;-65
2023/03/31 08:54:33;;;;;;;0.80;0.80;;;14.90;99.90;;;;;;4995425;28;20289;-65
2023/03/31 08:57:01;;;;;;;0.80;0.80;;;15.30;99.90;;;;;;4994395;28;20236;-64
2023/03/31 08:59:31;;;;;;;0.97;0.97;;;15.50;99.90;;;;;;4994011;28;20202;-65
2023/03/31 09:02:09;;;;;;;0.80;0.80;;;15.70;99.90;;;;;;4991033;28;20213;-63
2023/03/31 09:04:52;;;;;;;1.83;1.30;;;15.70;99.90;;;;;;4991189;28;20300;-65
2023/03/31 09:07:30;;;;;;;1.17;1.17;;;15.70;99.90;;;;;;4990203;28;20209;-64
2023/03/31 09:10:05;;;;;;;3.13;1.30;;;15.60;99.90;;;;;;4990241;28;20296;-63
2023/03/31 09:12:38;;;;;;;1.10;1.10;;;15.50;99.90;;;;;;4991397;28;20232;-65
2023/03/31 09:15:11;;;;;;;1.10;1.00;;;15.50;99.90;;;;;;4991547;28;20584;-65
2023/03/31 09:17:43;;;;;;;1.30;1.20;;;15.40;99.90;;;;;;4990582;28;20305;-65
2023/03/31 09:20:14;;;;;;;1.00;1.00;;;15.30;99.90;;;;;;4994840;28;20186;-64
2023/03/31 09:22:45;;;;;;;1.07;1.00;;;15.30;99.90;;;;;;4998992;28;20203;-66
2023/03/31 09:25:15;;;;;;;1.10;1.00;;;15.20;99.90;;;;;;4996064;28;20229;-63
2023/03/31 09:27:46;;;;;;;1.03;1.03;;;15.30;99.90;;;;;;4993333;28;20212;-63
2023/03/31 09:30:19;;;;;;;1.10;1.10;;;15.40;99.90;;;;;;4978653;28;20203;-65
2023/03/31 09:32:48;;;;;;;1.03;1.03;;;15.40;99.90;;;;;;4991049;28;20248;-65
2023/03/31 09:35:20;;;;;;;0.80;0.80;;;15.30;99.90;;;;;;4991711;28;20601;-69
2023/03/31 09:37:48;;;;;;;1.03;1.03;;;15.20;99.90;;;;;;4989475;28;20202;-66
2023/03/31 09:40:18;;;;;;;1.13;1.10;;;15.10;99.90;;;;;;4994087;28;20267;-66
2023/03/31 09:42:47;;;;;;;2.03;1.20;;;15.10;99.90;;;;;;4994072;28;20202;-63
2023/03/31 09:45:20;;;;;;;1.40;1.30;;;15.10;99.90;;;;;;4991810;28;20230;-64
2023/03/31 09:47:50;;;;;;;1.53;1.20;;;15.20;99.90;;;;;;4992921;28;20940;-64
2023/03/31 09:50:18;;;;;;;1.10;1.00;;;15.30;99.90;;;;;;4997268;28;20260;-64
2023/03/31 09:52:50;;;;;;;1.40;1.30;;;15.50;99.90;;;;;;4992703;28;20718;-64
2023/03/31 09:55:22;;;;;;;1.37;1.27;;;15.60;99.90;;;;;;4991343;28;20333;-65
2023/03/31 09:57:49;;;;;;;1.40;1.30;;;15.80;99.90;;;;;;4998361;28;20202;-64
2023/03/31 10:00:20;;;;;;;1.40;1.30;;;15.80;99.90;;;;;;4994961;28;20210;-65
2023/03/31 10:02:50;;;;;;;1.43;1.33;;;15.70;99.90;;;;;;4994850;28;20212;-65
2023/03/31 10:05:27;;;;;;;1.40;1.30;;;15.70;99.90;;;;;;4991824;28;20734;-64
2023/03/31 10:08:17;;;;;;;1.47;1.37;;;15.60;99.90;;;;;;4992594;28;20202;-64
2023/03/31 10:10:46;;;;;;;1.33;1.23;;;15.50;99.90;;;;;;4990083;28;20845;-66
2023/03/31 10:13:16;;;;;;;1.47;1.37;;;15.40;99.90;;;;;;4992902;28;20574;-64
2023/03/31 10:15:45;;;;;;;1.90;1.50;;;15.40;99.90;;;;;;4982854;28;20739;-64
2023/03/31 10:18:14;;;;;;;1.60;1.50;;;15.40;99.90;;;;;;4974380;28;20225;-64
2023/03/31 10:20:45;;;;;;;2.33;1.70;;;15.20;99.90;;;;;;4974679;28;20269;-65
2023/03/31 10:23:17;;;;;;;1.50;1.40;;;15.10;99.90;;;;;;4975490;28;20290;-64
2023/03/31 10:25:46;;;;;;;1.63;1.50;;;14.90;99.90;;;;;;4975218;28;20234;-65
2023/03/31 10:28:17;;;;;;;1.40;1.30;;;14.90;99.90;;;;;;4974612;28;20298;-64
2023/03/31 10:30:51;;;;;;;1.60;1.50;;;14.70;99.90;;;;;;4974939;28;20301;-63
2023/03/31 10:33:20;;;;;;;1.97;1.87;;;13.90;99.90;;;;;;4975935;28;20285;-64
2023/03/31 10:35:49;;;;;;;0.70;0.70;;;12.00;99.90;;;;;;4977771;28;20237;-64
2023/03/31 10:38:24;;;;;;;0.63;0.63;;;10.90;99.90;;;;;;4991458;28;20206;-66
2023/03/31 10:40:53;;;;;;;0.80;0.80;;;10.70;99.90;;;;;;4994830;28;20205;-65
2023/03/31 10:43:25;;;;;;;0.87;0.87;;;10.80;99.90;;;;;;4993922;28;20299;-64
2023/03/31 10:45:56;;;;;;;0.67;0.60;;;10.90;99.90;;;;;;4994181;28;20320;-65
2023/03/31 10:48:26;;;;;;;0.87;0.87;;;11.10;99.90;;;;;;4998008;28;20210;-65
2023/03/31 10:50:55;;;;;;;0.70;0.70;;;11.30;99.90;;;;;;4997246;28;20723;-65
2023/03/31 10:53:22;;;;;;;1.10;1.00;;;11.40;99.90;;;;;;4996021;28;20210;-65
2023/03/31 10:56:12;;;;;;;1.90;1.07;;;11.40;99.90;;;;;;4998093;28;20228;-65
2023/03/31 10:58:59;;;;;;;0.60;0.60;;;11.50;99.90;;;;;;4993735;28;20256;-66
2023/03/31 11:01:41;;;;;;;0.60;0.60;;;11.60;99.90;;;;;;4993889;28;20202;-66
2023/03/31 11:04:33;;;;;;;0.47;0.47;;;11.60;99.90;;;;;;4993362;28;20264;-65
2023/03/31 11:07:09;;;;;;;0.70;0.70;;;11.70;99.90;;;;;;4992557;28;20226;-64
2023/03/31 11:09:46;;;;;;;0.50;0.50;;;11.90;99.90;;;;;;4993304;28;20271;-65
2023/03/31 11:12:20;;;;;;;0.53;0.53;;;11.90;99.90;;;;;;4992780;28;20225;-65
2023/03/31 11:14:59;;;;;;;0.60;0.60;;;12.00;99.90;;;;;;4994144;28;20292;-64
2023/03/31 11:17:36;;;;;;;0.43;0.43;;;12.10;99.90;;;;;;4994685;28;20210;-64
2023/03/31 11:20:16;;;;;;;0.63;0.63;;;12.20;99.90;;;;;;4993552;28;20589;-66
2023/03/31 11:22:52;;;;;;;0.40;0.40;;;12.30;99.90;;;;;;4993477;28;20585;-64
2023/03/31 11:25:35;;;;;;;0.50;0.50;;;12.30;99.90;;;;;;4996841;28;20229;-65
2023/03/31 11:28:19;;;;;;;0.40;0.40;;;12.30;99.90;;;;;;5005326;28;20190;-66
2023/03/31 11:30:52;;;;;;;0.57;0.57;;;12.30;99.90;;;;;;4985568;28;20206;-66
2023/03/31 11:33:57;;;;;;;0.67;0.67;;;12.30;99.90;;;;;;4987023;28;20232;-64
2023/03/31 11:36:42;;;;;;;0.47;0.47;;;12.30;99.90;;;;;;4982470;28;20236;-64
2023/03/31 11:39:32;;;;;;;0.70;0.70;;;12.40;99.90;;;;;;4990746;28;20206;-65
2023/03/31 11:42:04;;;;;;;0.60;0.60;;;12.50;99.90;;;;;;4991860;28;20288;-65
2023/03/31 11:44:40;;;;;;;0.80;0.80;;;12.70;99.90;;;;;;4990468;28;20222;-65
2023/03/31 11:47:13;;;;;;;0.63;0.63;;;12.80;99.90;;;;;;4980107;28;20217;-65
2023/03/31 11:49:44;;;;;;;0.83;0.83;;;12.80;99.90;;;;;;4993506;28;20684;-64
2023/03/31 11:52:16;;;;;;;0.70;0.70;;;12.90;99.90;;;;;;4990799;28;20240;-65
2023/03/31 11:54:51;;;;;;;0.63;0.63;;;13.10;99.90;;;;;;4992801;28;20780;-64
2023/03/31 11:57:21;;;;;;;1.00;0.90;;;13.30;99.90;;;;;;4992799;28;20205;-64
2023/03/31 11:59:55;;;;;;;0.70;0.70;;;13.60;99.90;;;;;;4992446;28;20198;-65
2023/03/31 12:02:30;;;;;;;0.63;0.63;;;13.70;99.90;;;;;;4993032;28;20206;-65
2023/03/31 12:04:59;;;;;;;0.53;0.53;;;13.80;99.90;;;;;;4991850;28;20220;-65
2023/03/31 12:07:31;;;;;;;0.80;0.80;;;13.90;99.90;;;;;;4992584;28;20210;-65
2023/03/31 12:10:05;;;;;;;0.73;0.73;;;13.80;99.90;;;;;;4992285;28;20210;-63
2023/03/31 12:12:35;;;;;;;1.10;1.10;;;13.70;99.90;;;;;;4992655;28;20229;-64
2023/03/31 12:15:13;;;;;;;1.20;1.20;;;13.70;99.90;;;;;;4991425;28;20603;-63
2023/03/31 12:17:43;;;;;;;1.40;1.30;;;13.60;99.90;;;;;;4992903;28;20226;-63
2023/03/31 12:20:23;;;;;;;1.47;1.37;;;13.60;99.90;;;;;;4992286;28;20236;-65
2023/03/31 12:22:51;;;;;;;1.70;1.60;;;13.50;99.90;;;;;;4993260;28;20206;-64
2023/03/31 12:25:24;;;;;;;1.83;1.73;;;13.40;99.90;;;;;;4992425;28;20245;-65
2023/03/31 12:27:53;;;;;;;1.90;1.80;;;13.40;99.90;;;;;;4992932;28;20216;-66
2023/03/31 12:30:28;;;;;;;1.43;1.33;;;13.30;99.90;;;;;;4993628;28;20210;-63
2023/03/31 12:32:58;;;;;;;1.67;1.57;;;13.50;99.90;;;;;;4994065;28;20290;-64
2023/03/31 12:35:36;;;;;;;1.53;1.43;;;13.30;99.90;;;;;;4993573;28;20844;-65
2023/03/31 12:38:25;;;;;;;2.07;1.97;;;13.20;99.90;;;;;;4993082;28;20657;-63
2023/03/31 12:41:01;;;;;;;1.57;1.40;;;13.00;99.90;;;;;;4992889;28;20255;-65
2023/03/31 12:43:52;;;;;;;1.00;0.93;;;12.70;99.90;;;;;;4992965;28;20198;-65
2023/03/31 12:46:43;;;;;;;0.70;0.70;;;12.50;99.90;;;;;;4999740;28;20249;-65
2023/03/31 12:49:28;;;;;;;1.00;1.00;;;12.30;99.90;;;;;;5005807;28;20250;-63
2023/03/31 12:52:09;;;;;;;1.20;1.10;;;12.00;99.90;;;;;;5006066;28;20226;-65
2023/03/31 12:55:04;;;;;;;0.73;0.73;;;11.70;99.90;;;;;;5006052;28;20205;-65
2023/03/31 12:57:31;;;;;;;0.70;0.70;;;11.50;99.90;;;;;;5000350;28;20217;-63
2023/03/31 13:00:20;;;;;;;0.80;0.80;;;11.40;99.90;;;;;;4991338;28;20202;-63
2023/03/31 13:02:48;;;;;;;0.70;0.70;;;11.40;99.90;;;;;;4990978;28;20230;-65
2023/03/31 13:05:49;;;;;;;0.90;0.90;;;11.40;99.90;;;;;;4993661;28;20230;-64
2023/03/31 13:08:54;;;;;;;0.77;0.77;;;11.50;99.90;;;;;;4991186;28;21044;-65
2023/03/31 13:11:23;;;;;;;0.50;0.50;;;11.50;99.90;;;;;;4990062;28;20213;-65